Pagina principale
METAR-TAF:

METAR-TAF

Aeroporti :

Aeroporto di Zagabria-Franjo Tuđman

Zagabria, Croazia

latitudine: 45-44N, longitudine: 016-04E, altezza: 106 m

Osservazione

Il bollettino è stato emesso 27 minuti fa, alle 22:30 UTC
Vento 4 kt da ovest/sud-ovest
Temperature 17°C
Umidità 82%
Pressione 1018 hPa
Visibilità 10 km o più
nessuna nube inferiore a 1500 m e nessun cumulonembo

METAR: LDZA 152230Z 25004KT CAVOK 17/14 Q1018 NOSIG

Ora: 00:57 (22:57 UTC)

Previsione

Il bollettino è stato emesso 5 ore e 32 minuti fa, alle 17:25 UTC
Previsione valida dal 15 alle 18 UTC al 16 alle 18 UTC
Vento 7 kt da nord-est
Visibilità 10 km o più
nessuna nube inferiore a 1500 m e nessun cumulonembo
Evoluzione graduale
dal 16 alle 06 UTC al 16 alle 08 UTC
Vento 12 kt da nord-est

TAF: LDZA 151725Z 1518/1618 05007KT CAVOK TX30/1613Z TN18/1603Z BECMG 1606/1608 05012KT

Osservazioni e previsioni meteorologiche di più di 4000 aeroporti (messaggi METAR e TAF).

Le stazioni disponibili sono rappresentate dai dischi gialli e rossi sulla carta.

Puntare il mouse per vedere il nome della stazione.

Clicca sopra per visualizzare le osservazioni e previsioni meteorologiche.

Per cambiare la mappa : fare clic sui pulsanti verdi con una croce nera per ingrandire, il pulsante verde con un trattino per diminuire, o sulla freccia verde per le mappe adiacenti.


METAR-TAF: